createdAt,value
2019-02-27T00:01:11.397Z,10.90
2019-02-27T00:03:40.758Z,9.73
2019-02-27T00:06:10.155Z,10.63
2019-02-27T00:08:39.414Z,7.43
2019-02-27T00:11:12.068Z,7.00
2019-02-27T00:13:39.360Z,6.23
2019-02-27T00:16:10.893Z,6.27
2019-02-27T00:18:39.331Z,9.50
2019-02-27T00:21:10.994Z,6.27
2019-02-27T00:23:39.293Z,5.87
2019-02-27T00:26:08.974Z,7.33
2019-02-27T00:28:38.802Z,6.77
2019-02-27T00:31:11.126Z,7.03
2019-02-27T00:33:38.861Z,6.50
2019-02-27T00:36:11.979Z,6.20
2019-02-27T00:38:39.057Z,7.30
2019-02-27T00:41:12.008Z,7.47
2019-02-27T00:43:39.243Z,8.53
2019-02-27T00:46:10.734Z,10.13
2019-02-27T00:48:39.291Z,8.77
2019-02-27T00:51:09.627Z,7.57
2019-02-27T00:53:39.323Z,9.33
2019-02-27T00:56:11.984Z,6.17
2019-02-27T00:58:39.301Z,7.33
2019-02-27T01:01:10.035Z,8.80
2019-02-27T01:03:39.260Z,8.50
2019-02-27T01:06:08.485Z,7.97
2019-02-27T01:08:37.566Z,7.07
2019-02-27T01:11:06.696Z,9.17
2019-02-27T01:13:35.787Z,8.37
2019-02-27T01:16:04.904Z,6.73
2019-02-27T01:18:34.041Z,5.63
2019-02-27T01:21:03.215Z,5.40
2019-02-27T01:23:32.381Z,7.07
2019-02-27T01:26:01.598Z,5.27
2019-02-27T01:28:30.704Z,6.43
2019-02-27T01:30:59.795Z,6.70
2019-02-27T01:33:29.046Z,7.53
2019-02-27T01:35:58.143Z,23.67
2019-02-27T01:38:27.310Z,29.30
2019-02-27T01:40:56.384Z,25.47
2019-02-27T01:43:25.513Z,23.40
2019-02-27T01:45:55.038Z,12.90
2019-02-27T01:48:24.280Z,13.97
2019-02-27T01:50:55.313Z,10.40
2019-02-27T01:53:24.196Z,14.80
2019-02-27T01:55:56.214Z,11.90
2019-02-27T01:58:24.250Z,14.23
2019-02-27T02:00:56.101Z,15.37
2019-02-27T02:03:24.252Z,14.63
2019-02-27T02:05:53.352Z,14.13
2019-02-27T02:08:22.454Z,15.33
2019-02-27T02:10:51.579Z,14.13
2019-02-27T02:13:59.890Z,14.33
2019-02-27T02:17:01.657Z,9.00
2019-02-27T02:19:54.013Z,8.90
2019-02-27T02:22:47.666Z,9.10
2019-02-27T02:25:52.827Z,9.43
2019-02-27T02:29:17.874Z,9.90
2019-02-27T02:32:26.722Z,10.73
2019-02-27T02:35:28.271Z,10.03
2019-02-27T02:38:30.880Z,10.47
2019-02-27T02:41:48.239Z,11.63
2019-02-27T02:44:34.034Z,9.73
2019-02-27T02:47:34.824Z,11.20
2019-02-27T02:50:39.030Z,12.10
2019-02-27T02:53:52.157Z,11.07
2019-02-27T02:57:00.742Z,8.77
2019-02-27T03:00:38.975Z,9.70
2019-02-27T03:03:18.385Z,11.10
2019-02-27T03:06:35.004Z,9.40
2019-02-27T03:09:31.792Z,9.57
2019-02-27T03:12:47.776Z,8.30
2019-02-27T03:16:04.265Z,8.07
2019-02-27T03:19:29.662Z,9.30
2019-02-27T03:22:47.135Z,7.37
2019-02-27T03:26:04.147Z,8.23
2019-02-27T03:29:29.197Z,8.57
2019-02-27T03:32:18.540Z,7.63
2019-02-27T03:35:29.233Z,6.87
2019-02-27T03:38:28.950Z,9.00
2019-02-27T03:41:28.939Z,8.20
2019-02-27T03:44:33.496Z,6.07
2019-02-27T03:47:26.610Z,7.43
2019-02-27T03:50:23.442Z,7.23
2019-02-27T03:53:29.558Z,8.57
2019-02-27T03:57:19.072Z,7.20
2019-02-27T04:00:25.471Z,7.20
2019-02-27T04:03:22.074Z,6.70
2019-02-27T04:06:27.660Z,6.10
2019-02-27T04:08:57.825Z,6.10
2019-02-27T04:11:27.328Z,7.80
2019-02-27T04:14:03.413Z,8.70
2019-02-27T04:16:30.276Z,11.40
2019-02-27T04:19:02.695Z,13.00
2019-02-27T04:21:30.578Z,13.10
2019-02-27T04:23:59.700Z,11.47
2019-02-27T04:26:28.876Z,11.50
2019-02-27T04:28:58.000Z,9.60
2019-02-27T04:31:29.860Z,11.50
2019-02-27T04:34:00.373Z,11.03
2019-02-27T04:36:28.801Z,9.63
2019-02-27T04:39:01.870Z,11.20
2019-02-27T04:41:28.736Z,11.27
2019-02-27T04:43:57.845Z,12.73
2019-02-27T04:46:26.958Z,9.40
2019-02-27T04:48:56.143Z,11.70
2019-02-27T04:51:25.285Z,8.93
2019-02-27T04:53:54.383Z,8.30
2019-02-27T04:56:23.891Z,9.50
2019-02-27T04:58:53.000Z,9.97
2019-02-27T05:01:22.109Z,9.07
2019-02-27T05:03:51.267Z,7.43
2019-02-27T05:06:20.351Z,8.73
2019-02-27T05:08:49.497Z,7.90
2019-02-27T05:11:18.637Z,10.50
2019-02-27T05:13:48.847Z,10.70
2019-02-27T05:16:18.001Z,9.73
2019-02-27T05:18:47.093Z,7.73
2019-02-27T05:21:19.000Z,7.40
2019-02-27T05:23:47.191Z,9.13
2019-02-27T05:26:16.331Z,8.10
2019-02-27T05:28:45.545Z,7.40
2019-02-27T05:31:18.340Z,8.47
2019-02-27T05:33:46.047Z,9.30
2019-02-27T05:36:15.387Z,8.63
2019-02-27T05:38:44.676Z,7.57
2019-02-27T05:41:13.913Z,7.53
2019-02-27T05:43:47.703Z,6.50
2019-02-27T05:46:15.164Z,6.43
2019-02-27T05:48:44.394Z,6.43
2019-02-27T05:51:13.510Z,7.20
2019-02-27T05:53:42.620Z,6.40
2019-02-27T05:56:15.591Z,6.10
2019-02-27T05:58:42.818Z,7.17
2019-02-27T06:01:12.094Z,7.70
2019-02-27T06:03:41.202Z,6.00
2019-02-27T06:06:11.822Z,7.03
2019-02-27T06:08:41.320Z,6.50
2019-02-27T06:11:10.496Z,6.07
2019-02-27T06:13:39.638Z,6.10
2019-02-27T06:16:09.283Z,6.57
2019-02-27T06:18:38.552Z,7.07
2019-02-27T06:21:07.693Z,7.07
2019-02-27T06:23:37.843Z,6.50
2019-02-27T06:26:07.576Z,6.53
2019-02-27T06:28:36.709Z,6.30
2019-02-27T06:31:05.818Z,7.13
2019-02-27T06:33:34.952Z,8.37
2019-02-27T06:36:05.370Z,9.33
2019-02-27T06:38:34.934Z,10.07
2019-02-27T06:41:04.074Z,7.60
2019-02-27T06:43:33.221Z,12.30
2019-02-27T06:46:02.378Z,10.27
2019-02-27T06:48:31.581Z,17.50
2019-02-27T06:51:00.835Z,16.00
2019-02-27T06:53:30.773Z,16.37
2019-02-27T06:56:02.876Z,21.77
2019-02-27T06:58:30.733Z,16.40
2019-02-27T07:00:59.869Z,15.40
2019-02-27T07:03:29.426Z,20.23
2019-02-27T07:06:00.021Z,15.97
2019-02-27T07:08:29.231Z,17.13
2019-02-27T07:11:09.900Z,18.00
2019-02-27T07:13:29.985Z,17.33
2019-02-27T07:15:59.217Z,14.73
2019-02-27T07:18:28.343Z,15.97
2019-02-27T07:20:58.299Z,18.47
2019-02-27T07:23:28.389Z,18.80
2019-02-27T07:25:57.545Z,19.40
2019-02-27T07:28:26.791Z,25.23
2019-02-27T07:30:55.939Z,26.87
2019-02-27T07:33:25.043Z,27.73
2019-02-27T07:35:54.299Z,31.50
2019-02-27T07:38:25.471Z,24.27
2019-02-27T07:40:54.382Z,27.57
2019-02-27T07:43:25.408Z,24.13
2019-02-27T07:45:56.132Z,24.47
2019-02-27T07:48:25.245Z,26.73
2019-02-27T07:50:54.477Z,21.80
2019-02-27T07:53:25.545Z,18.90
2019-02-27T07:55:54.467Z,17.90
2019-02-27T07:58:23.604Z,40.13
2019-02-27T08:00:52.827Z,17.07
2019-02-27T08:03:22.001Z,25.03
2019-02-27T08:05:51.132Z,19.17
2019-02-27T08:08:23.224Z,20.03
2019-02-27T08:10:51.431Z,38.93
2019-02-27T08:13:20.523Z,29.10
2019-02-27T08:15:49.658Z,30.03
2019-02-27T08:18:23.161Z,28.90
2019-02-27T08:20:54.196Z,27.30
2019-02-27T08:23:20.500Z,28.67
2019-02-27T08:25:49.632Z,21.10
2019-02-27T08:28:18.823Z,18.33
2019-02-27T08:30:47.972Z,23.37
2019-02-27T08:33:17.074Z,21.77
2019-02-27T08:35:46.232Z,18.77
2019-02-27T08:38:15.335Z,16.13
2019-02-27T08:40:44.544Z,14.73
2019-02-27T08:43:13.660Z,14.30
2019-02-27T08:45:42.791Z,15.97
2019-02-27T08:48:11.824Z,12.93
2019-02-27T08:50:40.964Z,14.07
2019-02-27T08:53:10.048Z,16.57
2019-02-27T08:55:39.791Z,13.57
2019-02-27T08:58:08.891Z,13.50
2019-02-27T09:00:39.133Z,15.17
2019-02-27T09:03:08.247Z,14.23
2019-02-27T09:05:37.418Z,14.63
2019-02-27T09:08:07.339Z,11.33
2019-02-27T09:10:37.494Z,12.80
2019-02-27T09:13:06.607Z,10.97
2019-02-27T09:15:35.774Z,14.10
2019-02-27T09:18:05.033Z,12.20
2019-02-27T09:20:34.178Z,11.37
2019-02-27T09:23:03.397Z,12.00
2019-02-27T09:25:32.558Z,12.77
2019-02-27T09:28:03.490Z,12.03
2019-02-27T09:30:34.820Z,15.77
2019-02-27T09:33:03.941Z,11.23
2019-02-27T09:35:38.302Z,11.50
2019-02-27T09:38:04.084Z,12.97
2019-02-27T09:40:38.163Z,13.13
2019-02-27T09:43:06.171Z,13.10
2019-02-27T09:45:35.496Z,12.07
2019-02-27T09:48:04.897Z,9.17
2019-02-27T09:50:35.579Z,10.17
2019-02-27T09:53:04.839Z,9.77
2019-02-27T09:55:34.080Z,12.50
2019-02-27T09:58:03.318Z,13.50
2019-02-27T10:00:37.359Z,11.63
2019-02-27T10:03:06.711Z,12.23
2019-02-27T10:05:36.693Z,10.03
2019-02-27T10:08:07.616Z,14.07
2019-02-27T10:10:37.009Z,12.17
2019-02-27T10:13:06.138Z,13.10
2019-02-27T10:15:35.335Z,10.00
2019-02-27T10:18:04.707Z,14.67
2019-02-27T10:20:36.835Z,11.33
2019-02-27T10:23:04.763Z,16.73
2019-02-27T10:25:33.966Z,11.37
2019-02-27T10:28:04.487Z,14.77
2019-02-27T10:30:33.906Z,11.30
2019-02-27T10:33:03.534Z,11.50
2019-02-27T10:35:34.749Z,10.53
2019-02-27T10:38:04.222Z,11.37
2019-02-27T10:40:33.524Z,11.67
2019-02-27T10:43:02.734Z,12.10
2019-02-27T10:45:31.887Z,10.47
2019-02-27T10:48:01.077Z,13.40
2019-02-27T10:50:30.347Z,11.87
2019-02-27T10:52:59.445Z,12.77
2019-02-27T10:55:28.642Z,10.63
2019-02-27T10:57:59.926Z,11.07
2019-02-27T11:00:30.264Z,13.43
2019-02-27T11:02:59.581Z,9.73
2019-02-27T11:05:29.571Z,8.77
2019-02-27T11:07:58.727Z,9.67
2019-02-27T11:10:27.848Z,10.47
2019-02-27T11:12:57.028Z,8.53
2019-02-27T11:15:26.175Z,8.43
2019-02-27T11:17:55.358Z,6.47
2019-02-27T11:20:24.879Z,6.40
2019-02-27T11:22:54.195Z,6.90
2019-02-27T11:25:23.580Z,8.63
2019-02-27T11:27:52.726Z,7.37
2019-02-27T11:30:24.393Z,5.63
2019-02-27T11:32:57.013Z,4.77
2019-02-27T11:35:25.203Z,5.67
2019-02-27T11:37:55.172Z,5.67
2019-02-27T11:40:24.488Z,6.13
2019-02-27T11:42:53.754Z,6.83
2019-02-27T11:45:24.626Z,6.27
2019-02-27T11:47:53.969Z,6.20
2019-02-27T11:50:23.102Z,5.27
2019-02-27T11:52:52.319Z,5.17
2019-02-27T11:55:21.459Z,5.43
2019-02-27T11:57:51.680Z,4.93
2019-02-27T12:00:28.701Z,4.67
2019-02-27T12:02:57.907Z,4.60
2019-02-27T12:05:30.806Z,5.20
2019-02-27T12:07:57.904Z,4.27
2019-02-27T12:10:27.516Z,4.57
2019-02-27T12:13:00.728Z,6.23
2019-02-27T12:15:27.659Z,3.70
2019-02-27T12:17:59.965Z,4.70
2019-02-27T12:20:27.823Z,3.57
2019-02-27T12:22:56.991Z,4.40
2019-02-27T12:25:28.953Z,3.87
2019-02-27T12:27:57.205Z,4.03
2019-02-27T12:30:26.960Z,3.23
2019-02-27T12:32:57.074Z,3.00
2019-02-27T12:35:28.134Z,3.03
2019-02-27T12:37:57.303Z,3.63
2019-02-27T12:40:26.428Z,3.50
2019-02-27T12:42:55.627Z,2.97
2019-02-27T12:45:26.506Z,4.30
2019-02-27T12:47:56.139Z,4.20
2019-02-27T12:50:26.927Z,3.40
2019-02-27T12:52:56.585Z,2.67
2019-02-27T12:55:26.097Z,3.67
2019-02-27T12:57:55.226Z,2.67
2019-02-27T13:00:26.709Z,2.70
2019-02-27T13:02:55.857Z,3.60
2019-02-27T13:05:27.369Z,2.73
2019-02-27T13:07:55.813Z,2.60
2019-02-27T13:10:24.933Z,2.98
2019-02-27T13:12:54.258Z,2.93
2019-02-27T13:15:23.870Z,3.80
2019-02-27T13:17:56.142Z,2.60
2019-02-27T13:20:25.199Z,4.42
2019-02-27T13:22:54.325Z,3.37
2019-02-27T13:25:24.877Z,2.52
2019-02-27T13:27:54.225Z,4.25
2019-02-27T13:30:23.573Z,4.70
2019-02-27T13:32:52.725Z,2.45
2019-02-27T13:35:23.139Z,4.50
2019-02-27T13:37:52.965Z,4.90
2019-02-27T13:40:22.158Z,3.55
2019-02-27T13:42:53.376Z,2.30
2019-02-27T13:45:23.803Z,2.27
2019-02-27T13:47:52.923Z,3.27
2019-02-27T13:50:23.466Z,5.60
2019-02-27T13:52:52.930Z,3.08
2019-02-27T13:55:23.092Z,2.67
2019-02-27T13:57:52.359Z,2.47
2019-02-27T14:00:27.012Z,4.50
2019-02-27T14:02:56.266Z,2.75
2019-02-27T14:05:25.521Z,4.03
2019-02-27T14:07:58.526Z,2.42
2019-02-27T14:10:26.887Z,3.42
2019-02-27T14:12:56.217Z,2.95
2019-02-27T14:15:27.194Z,3.30
2019-02-27T14:17:56.276Z,2.37
2019-02-27T14:20:26.874Z,2.10
2019-02-27T14:22:56.485Z,3.45
2019-02-27T14:25:31.143Z,2.85
2019-02-27T14:27:58.828Z,2.05
2019-02-27T14:30:31.835Z,1.60
2019-02-27T14:33:00.969Z,2.17
2019-02-27T14:35:35.303Z,1.95
2019-02-27T14:38:00.951Z,2.35
2019-02-27T14:40:30.179Z,2.67
2019-02-27T14:42:59.293Z,2.17
2019-02-27T14:45:28.430Z,2.65
2019-02-27T14:47:59.058Z,1.70
2019-02-27T14:50:33.582Z,2.08
2019-02-27T14:52:59.321Z,3.00
2019-02-27T14:55:28.562Z,1.90
2019-02-27T14:57:57.706Z,2.27
2019-02-27T15:00:28.560Z,3.25
2019-02-27T15:02:57.795Z,3.02
2019-02-27T15:05:27.067Z,1.65
2019-02-27T15:07:56.245Z,3.25
2019-02-27T15:10:26.114Z,1.70
2019-02-27T15:12:55.674Z,1.92
2019-02-27T15:15:26.721Z,2.08
2019-02-27T15:17:55.953Z,1.80
2019-02-27T15:20:25.944Z,2.10
2019-02-27T15:22:55.362Z,1.70
2019-02-27T15:25:24.553Z,1.90
2019-02-27T15:27:58.299Z,6.72
2019-02-27T15:30:26.064Z,2.87
2019-02-27T15:32:55.196Z,2.25
2019-02-27T15:35:24.392Z,2.90
2019-02-27T15:37:53.763Z,10.25
2019-02-27T15:40:28.637Z,2.70
2019-02-27T15:42:54.581Z,9.13
2019-02-27T15:45:23.816Z,7.75
2019-02-27T15:47:52.938Z,7.85
2019-02-27T15:50:23.605Z,5.80
2019-02-27T15:52:52.873Z,2.92
2019-02-27T15:55:22.037Z,3.45
2019-02-27T15:57:53.790Z,3.90
2019-02-27T16:00:22.670Z,3.52
2019-02-27T16:02:51.863Z,3.17
2019-02-27T16:05:20.990Z,2.12
2019-02-27T16:07:50.430Z,2.00
2019-02-27T16:10:20.696Z,1.80
2019-02-27T16:12:50.315Z,4.80
2019-02-27T16:15:19.659Z,3.20
2019-02-27T16:17:49.160Z,2.70
2019-02-27T16:20:18.857Z,2.70
2019-02-27T16:22:47.988Z,2.40
2019-02-27T16:25:19.867Z,2.10
2019-02-27T16:27:49.365Z,3.07
2019-02-27T16:30:31.122Z,2.80
2019-02-27T16:32:56.620Z,5.00
2019-02-27T16:35:25.776Z,5.10
2019-02-27T16:37:57.558Z,5.63
2019-02-27T16:40:25.883Z,5.83
2019-02-27T16:42:54.980Z,6.33
2019-02-27T16:45:29.412Z,6.23
2019-02-27T16:47:58.433Z,6.33
2019-02-27T16:50:28.251Z,5.43
2019-02-27T16:52:57.480Z,7.60
2019-02-27T16:55:26.653Z,7.47
2019-02-27T16:57:57.427Z,5.37
2019-02-27T17:00:28.012Z,6.23
2019-02-27T17:02:57.368Z,4.07
2019-02-27T17:05:26.899Z,4.73
2019-02-27T17:08:00.656Z,5.10
2019-02-27T17:10:29.344Z,4.87
2019-02-27T17:12:59.053Z,5.27
2019-02-27T17:15:28.199Z,3.77
2019-02-27T17:17:57.517Z,3.93
2019-02-27T17:20:26.654Z,4.80
2019-02-27T17:22:55.817Z,4.10
2019-02-27T17:25:28.582Z,4.83
2019-02-27T17:27:55.848Z,4.10
2019-02-27T17:30:27.096Z,4.17
2019-02-27T17:32:56.239Z,3.73
2019-02-27T17:35:25.342Z,4.30
2019-02-27T17:37:54.468Z,4.00
2019-02-27T17:40:23.583Z,4.27
2019-02-27T17:42:53.488Z,3.43
2019-02-27T17:45:23.429Z,4.33
2019-02-27T17:47:52.594Z,6.23
2019-02-27T17:50:21.751Z,4.57
2019-02-27T17:52:50.903Z,4.60
2019-02-27T17:55:20.093Z,5.57
2019-02-27T17:57:49.253Z,4.20
2019-02-27T18:00:23.705Z,4.10
2019-02-27T18:02:52.964Z,4.00
2019-02-27T18:05:22.361Z,4.73
2019-02-27T18:07:52.905Z,7.07
2019-02-27T18:10:22.170Z,5.03
2019-02-27T18:12:51.743Z,5.17
2019-02-27T18:15:21.311Z,13.73
2019-02-27T18:17:50.795Z,5.40
2019-02-27T18:20:24.418Z,8.33
2019-02-27T18:22:51.187Z,5.23
2019-02-27T18:25:20.372Z,7.23
2019-02-27T18:27:49.593Z,9.50
2019-02-27T18:30:19.748Z,5.50
2019-02-27T18:32:49.065Z,6.50
2019-02-27T18:35:18.470Z,6.90
2019-02-27T18:37:53.086Z,7.00
2019-02-27T18:40:19.140Z,9.10
2019-02-27T18:42:48.300Z,5.53
2019-02-27T18:45:17.496Z,6.03
2019-02-27T18:47:46.721Z,7.90
2019-02-27T18:50:16.313Z,6.83
2019-02-27T18:52:45.466Z,5.17
2019-02-27T18:55:14.914Z,4.50
2019-02-27T18:57:47.248Z,5.30
2019-02-27T19:00:18.715Z,5.53
2019-02-27T19:02:48.101Z,3.60
2019-02-27T19:05:17.384Z,4.77
2019-02-27T19:07:46.546Z,5.33
2019-02-27T19:10:16.065Z,4.57
2019-02-27T19:12:45.188Z,6.00
2019-02-27T19:15:16.668Z,4.73
2019-02-27T19:17:45.918Z,4.40
2019-02-27T19:20:18.020Z,4.50
2019-02-27T19:22:47.425Z,6.77
2019-02-27T19:25:16.546Z,7.13
2019-02-27T19:27:45.704Z,4.40
2019-02-27T19:30:16.752Z,4.67
2019-02-27T19:32:47.135Z,16.70
2019-02-27T19:35:21.280Z,17.33
2019-02-27T19:37:47.628Z,10.23
2019-02-27T19:40:18.432Z,6.97
2019-02-27T19:42:52.870Z,13.47
2019-02-27T19:45:21.988Z,13.33
2019-02-27T19:47:54.604Z,13.10
2019-02-27T19:50:22.368Z,11.13
2019-02-27T19:52:51.590Z,6.53
2019-02-27T19:55:26.516Z,6.90
2019-02-27T19:57:51.576Z,6.50
2019-02-27T20:00:22.543Z,8.53
2019-02-27T20:02:55.172Z,6.77
2019-02-27T20:05:22.878Z,6.37
2019-02-27T20:07:52.284Z,7.10
2019-02-27T20:10:21.521Z,4.00
2019-02-27T20:12:52.720Z,6.93
2019-02-27T20:15:23.338Z,5.17
2019-02-27T20:17:52.914Z,5.27
2019-02-27T20:20:22.521Z,9.03
2019-02-27T20:22:53.353Z,5.63
2019-02-27T20:25:23.334Z,6.40
2019-02-27T20:27:52.463Z,8.00
2019-02-27T20:30:21.590Z,8.90
2019-02-27T20:32:50.779Z,18.83
2019-02-27T20:35:20.817Z,14.47
2019-02-27T20:37:50.720Z,14.10
2019-02-27T20:40:19.924Z,12.60
2019-02-27T20:42:51.430Z,12.07
2019-02-27T20:45:19.954Z,10.10
2019-02-27T20:47:49.202Z,9.60
2019-02-27T20:50:34.610Z,11.00
2019-02-27T20:52:54.785Z,13.27
2019-02-27T20:55:23.971Z,14.83
2019-02-27T20:57:53.335Z,14.50
2019-02-27T21:00:22.510Z,17.07
2019-02-27T21:02:53.494Z,20.47
2019-02-27T21:05:23.978Z,17.37
2019-02-27T21:07:53.243Z,11.00
2019-02-27T21:10:23.412Z,18.00
2019-02-27T21:12:54.297Z,13.53
2019-02-27T21:15:24.916Z,16.23
2019-02-27T21:17:57.539Z,16.30
2019-02-27T21:20:25.317Z,12.53
2019-02-27T21:22:54.495Z,9.57
2019-02-27T21:25:23.639Z,12.33
2019-02-27T21:27:52.889Z,10.90
2019-02-27T21:30:22.200Z,13.40
2019-02-27T21:32:51.580Z,11.07
2019-02-27T21:35:20.725Z,10.50
2019-02-27T21:37:51.004Z,9.80
2019-02-27T21:40:20.346Z,10.57
2019-02-27T21:42:50.791Z,8.00
2019-02-27T21:45:20.350Z,7.67
2019-02-27T21:47:51.700Z,11.43
2019-02-27T21:50:20.601Z,10.47
2019-02-27T21:52:49.789Z,9.00
2019-02-27T21:55:18.971Z,9.77
2019-02-27T21:57:48.086Z,9.40
2019-02-27T22:00:20.661Z,11.87
2019-02-27T22:02:52.534Z,11.70
2019-02-27T22:05:21.651Z,14.27
2019-02-27T22:07:53.631Z,12.20
2019-02-27T22:10:22.786Z,12.37
2019-02-27T22:12:52.023Z,10.53
2019-02-27T22:15:26.286Z,9.60
2019-02-27T22:17:55.463Z,9.57
2019-02-27T22:20:25.793Z,10.13
2019-02-27T22:22:55.620Z,9.93
2019-02-27T22:25:30.212Z,9.37
2019-02-27T22:27:55.537Z,11.07
2019-02-27T22:30:24.774Z,12.27
2019-02-27T22:32:53.828Z,8.50
2019-02-27T22:35:22.923Z,11.53
2019-02-27T22:37:52.774Z,9.13
2019-02-27T22:40:22.316Z,8.10
2019-02-27T22:42:51.448Z,8.13
2019-02-27T22:45:20.852Z,6.23
2019-02-27T22:47:50.314Z,13.70
2019-02-27T22:50:19.527Z,20.13
2019-02-27T22:52:54.053Z,22.77
2019-02-27T22:55:20.348Z,16.47
2019-02-27T22:57:49.576Z,15.13
2019-02-27T23:00:57.402Z,11.63
2019-02-27T23:03:27.638Z,14.07
2019-02-27T23:05:56.826Z,11.97
2019-02-27T23:08:26.019Z,13.10
2019-02-27T23:10:55.287Z,11.30
2019-02-27T23:13:24.428Z,9.50
2019-02-27T23:15:58.065Z,9.30
2019-02-27T23:18:24.609Z,10.07
2019-02-27T23:20:55.395Z,10.17
2019-02-27T23:23:24.816Z,8.57
2019-02-27T23:25:54.062Z,8.20
2019-02-27T23:28:23.151Z,11.37
2019-02-27T23:30:52.306Z,6.83
2019-02-27T23:33:21.478Z,6.40
2019-02-27T23:35:50.883Z,5.90
2019-02-27T23:38:20.170Z,6.87
2019-02-27T23:40:50.129Z,5.33
2019-02-27T23:43:19.802Z,7.27
2019-02-27T23:45:49.083Z,5.67
2019-02-27T23:48:18.166Z,6.00
2019-02-27T23:50:47.335Z,8.37
2019-02-27T23:53:16.506Z,5.93
2019-02-27T23:55:45.666Z,7.10
2019-02-27T23:58:14.901Z,5.97
